Nettleton, Mississippi
Current Conditions -  °F | °C
As of 3:53 AM on Saturday 29 Nov 2014 (Local Time) from KTUP Reporting Station
Overcast Overcast  
Wind Chill: 35°   Ceiling: 5000
Heat Index: 41°   Visibility: 10mi
Dew Point: 30°   Wind: 10mph
Humidity: 65%   Direction: 200°SSW
Pressure: 30.15"   Gusts: NA
Location:  34.09°N, 88.62°W
Report Text: KTUP 290953Z AUTO 20009KT 10SM SCT033 OVC050 05/M01 A3015 RMK AO2 SLP210 T00501011 $
Loading
Personal Weather Stations






























Interactive Weather Map New forecast layout! Learn more

10-Day Weather Forecast

Advertisements
Track Severe Weather on mobile